Appleton, Idaho
Current Conditions -  °F | °C
As of 6:53 PM on Wednesday 26 Nov 2014 (Local Time) from KJER Reporting Station
Clear Clear  
Wind Chill: 41°   Ceiling: Unl
Heat Index: 44°   Visibility: 10mi
Dew Point: 34°   Wind: 6mph
Humidity: 68%   Direction: 90°E
Pressure: 30.26"   Gusts: NA
Location:  42.7238°N, 114.338°W
Report Text: KJER 270153Z AUTO 09005KT 10SM CLR 07/01 A3026 RMK AO2 SLP256 T00670011
Loading
Personal Weather Stations






























Interactive Weather Map New forecast layout! Learn more

10-Day Weather Forecast

Advertisements
Track Severe Weather on mobile